sensor_id;sensor_type;location;lat;lon;timestamp;pressure;altitude;pressure_sealevel;temperature
78859;BMP280;68210;52.032;4.634;2023-11-21T00:01:35;100876.59;;;12.68
78859;BMP280;68210;52.032;4.634;2023-11-21T00:03:36;100873.66;;;12.76
78859;BMP280;68210;52.032;4.634;2023-11-21T00:05:36;100877.09;;;12.95
78859;BMP280;68210;52.032;4.634;2023-11-21T00:07:37;100880.31;;;13.01
78859;BMP280;68210;52.032;4.634;2023-11-21T00:09:38;100888.22;;;13.09
78859;BMP280;68210;52.032;4.634;2023-11-21T00:11:38;100891.38;;;13.11
78859;BMP280;68210;52.032;4.634;2023-11-21T00:13:39;100896.31;;;13.28
78859;BMP280;68210;52.032;4.634;2023-11-21T00:15:39;100894.50;;;13.35
78859;BMP280;68210;52.032;4.634;2023-11-21T00:17:40;100896.66;;;13.48
78859;BMP280;68210;52.032;4.634;2023-11-21T00:19:41;100895.94;;;13.51
78859;BMP280;68210;52.032;4.634;2023-11-21T00:21:42;100889.69;;;13.51
78859;BMP280;68210;52.032;4.634;2023-11-21T00:23:46;100883.56;;;13.57
78859;BMP280;68210;52.032;4.634;2023-11-21T00:25:46;100895.19;;;13.54
78859;BMP280;68210;52.032;4.634;2023-11-21T00:27:46;100892.88;;;13.56
78859;BMP280;68210;52.032;4.634;2023-11-21T00:29:47;100885.78;;;13.48
78859;BMP280;68210;52.032;4.634;2023-11-21T00:31:47;100890.56;;;13.58
78859;BMP280;68210;52.032;4.634;2023-11-21T00:33:48;100888.28;;;13.60
78859;BMP280;68210;52.032;4.634;2023-11-21T00:35:48;100887.22;;;13.68
78859;BMP280;68210;52.032;4.634;2023-11-21T00:37:49;100887.91;;;13.62
78859;BMP280;68210;52.032;4.634;2023-11-21T00:39:49;100890.56;;;13.58
78859;BMP280;68210;52.032;4.634;2023-11-21T00:41:50;100899.06;;;13.53
78859;BMP280;68210;52.032;4.634;2023-11-21T00:43:51;100902.19;;;13.55
78859;BMP280;68210;52.032;4.634;2023-11-21T00:45:51;100897.59;;;13.59
78859;BMP280;68210;52.032;4.634;2023-11-21T00:47:51;100899.13;;;13.57
78859;BMP280;68210;52.032;4.634;2023-11-21T00:49:52;100894.56;;;13.64
78859;BMP280;68210;52.032;4.634;2023-11-21T00:51:53;100898.84;;;13.65
78859;BMP280;68210;52.032;4.634;2023-11-21T00:53:53;100903.28;;;13.76
78859;BMP280;68210;52.032;4.634;2023-11-21T00:55:53;100896.31;;;13.79
78859;BMP280;68210;52.032;4.634;2023-11-21T00:57:57;100894.50;;;13.61
78859;BMP280;68210;52.032;4.634;2023-11-21T00:59:58;100909.25;;;13.56
78859;BMP280;68210;52.032;4.634;2023-11-21T01:01:58;100900.63;;;13.54
78859;BMP280;68210;52.032;4.634;2023-11-21T01:04:01;100908.50;;;13.59
78859;BMP280;68210;52.032;4.634;2023-11-21T01:06:01;100906.91;;;13.58
78859;BMP280;68210;52.032;4.634;2023-11-21T01:08:02;100910.19;;;13.67
78859;BMP280;68210;52.032;4.634;2023-11-21T01:10:05;100916.75;;;13.66
78859;BMP280;68210;52.032;4.634;2023-11-21T01:12:09;100915.41;;;13.79
78859;BMP280;68210;52.032;4.634;2023-11-21T01:14:10;100911.50;;;13.80
78859;BMP280;68210;52.032;4.634;2023-11-21T01:16:10;100913.00;;;13.74
78859;BMP280;68210;52.032;4.634;2023-11-21T01:18:11;100909.53;;;13.77
78859;BMP280;68210;52.032;4.634;2023-11-21T01:20:12;100918.13;;;13.79
78859;BMP280;68210;52.032;4.634;2023-11-21T01:22:12;100923.63;;;13.82
78859;BMP280;68210;52.032;4.634;2023-11-21T01:24:13;100923.69;;;13.86
78859;BMP280;68210;52.032;4.634;2023-11-21T01:26:13;100940.19;;;13.96
78859;BMP280;68210;52.032;4.634;2023-11-21T01:28:14;100928.88;;;13.94
78859;BMP280;68210;52.032;4.634;2023-11-21T01:30:14;100933.94;;;13.96
78859;BMP280;68210;52.032;4.634;2023-11-21T01:32:14;100934.03;;;13.99
78859;BMP280;68210;52.032;4.634;2023-11-21T01:34:15;100941.94;;;14.07
78859;BMP280;68210;52.032;4.634;2023-11-21T01:36:15;100947.47;;;14.14
78859;BMP280;68210;52.032;4.634;2023-11-21T01:38:15;100947.84;;;14.13
78859;BMP280;68210;52.032;4.634;2023-11-21T01:40:17;100950.66;;;14.20
78859;BMP280;68210;52.032;4.634;2023-11-21T01:42:19;100952.25;;;14.21
78859;BMP280;68210;52.032;4.634;2023-11-21T01:44:19;100957.03;;;14.30
78859;BMP280;68210;52.032;4.634;2023-11-21T01:46:20;100954.59;;;14.22
78859;BMP280;68210;52.032;4.634;2023-11-21T01:48:21;100964.72;;;14.22
78859;BMP280;68210;52.032;4.634;2023-11-21T01:50:21;100963.44;;;14.12
78859;BMP280;68210;52.032;4.634;2023-11-21T01:52:22;100956.81;;;14.13
78859;BMP280;68210;52.032;4.634;2023-11-21T01:54:23;100959.03;;;14.04
78859;BMP280;68210;52.032;4.634;2023-11-21T01:56:24;100955.88;;;14.02
78859;BMP280;68210;52.032;4.634;2023-11-21T01:58:24;100954.63;;;13.97
78859;BMP280;68210;52.032;4.634;2023-11-21T02:00:24;100969.13;;;14.04
78859;BMP280;68210;52.032;4.634;2023-11-21T02:02:26;100969.50;;;14.02
78859;BMP280;68210;52.032;4.634;2023-11-21T02:04:26;100971.81;;;14.00
78859;BMP280;68210;52.032;4.634;2023-11-21T02:06:27;100968.81;;;14.09
78859;BMP280;68210;52.032;4.634;2023-11-21T02:08:31;100972.06;;;14.18
78859;BMP280;68210;52.032;4.634;2023-11-21T02:10:31;100966.66;;;14.21
78859;BMP280;68210;52.032;4.634;2023-11-21T02:12:32;100975.66;;;14.25
78859;BMP280;68210;52.032;4.634;2023-11-21T02:14:32;100976.13;;;14.30
78859;BMP280;68210;52.032;4.634;2023-11-21T02:16:33;100976.84;;;14.24
78859;BMP280;68210;52.032;4.634;2023-11-21T02:18:33;100966.38;;;14.29
78859;BMP280;68210;52.032;4.634;2023-11-21T02:20:34;100974.09;;;14.24
78859;BMP280;68210;52.032;4.634;2023-11-21T02:22:38;100974.00;;;14.17
78859;BMP280;68210;52.032;4.634;2023-11-21T02:24:41;100976.22;;;14.08
78859;BMP280;68210;52.032;4.634;2023-11-21T02:26:42;100980.25;;;14.18
78859;BMP280;68210;52.032;4.634;2023-11-21T02:28:42;100976.38;;;14.19
78859;BMP280;68210;52.032;4.634;2023-11-21T02:30:43;100981.00;;;14.15
78859;BMP280;68210;52.032;4.634;2023-11-21T02:32:43;100972.66;;;14.04
78859;BMP280;68210;52.032;4.634;2023-11-21T02:34:44;100978.13;;;14.04
78859;BMP280;68210;52.032;4.634;2023-11-21T02:36:44;100978.84;;;14.01
78859;BMP280;68210;52.032;4.634;2023-11-21T02:38:45;100982.44;;;14.09
78859;BMP280;68210;52.032;4.634;2023-11-21T02:40:45;100984.50;;;14.15
78859;BMP280;68210;52.032;4.634;2023-11-21T02:42:49;100984.69;;;14.03
78859;BMP280;68210;52.032;4.634;2023-11-21T02:44:53;100989.19;;;13.93
78859;BMP280;68210;52.032;4.634;2023-11-21T02:46:53;100983.88;;;13.99
78859;BMP280;68210;52.032;4.634;2023-11-21T02:48:53;100984.91;;;13.92
78859;BMP280;68210;52.032;4.634;2023-11-21T02:50:54;100981.97;;;14.03
78859;BMP280;68210;52.032;4.634;2023-11-21T02:52:55;100991.50;;;13.91
78859;BMP280;68210;52.032;4.634;2023-11-21T02:54:57;100988.44;;;13.96
78859;BMP280;68210;52.032;4.634;2023-11-21T02:56:58;100993.75;;;14.07
78859;BMP280;68210;52.032;4.634;2023-11-21T02:59:00;100992.34;;;13.95
78859;BMP280;68210;52.032;4.634;2023-11-21T03:01:00;100988.84;;;13.24
78859;BMP280;68210;52.032;4.634;2023-11-21T03:03:01;100993.25;;;12.73
78859;BMP280;68210;52.032;4.634;2023-11-21T03:05:01;101006.28;;;13.01
78859;BMP280;68210;52.032;4.634;2023-11-21T03:07:01;101001.34;;;13.29
78859;BMP280;68210;52.032;4.634;2023-11-21T03:09:02;100993.75;;;13.37
78859;BMP280;68210;52.032;4.634;2023-11-21T03:11:02;101008.44;;;13.55
78859;BMP280;68210;52.032;4.634;2023-11-21T03:13:03;101008.19;;;13.64
78859;BMP280;68210;52.032;4.634;2023-11-21T03:15:08;101009.09;;;13.71
78859;BMP280;68210;52.032;4.634;2023-11-21T03:17:11;101002.25;;;13.80
78859;BMP280;68210;52.032;4.634;2023-11-21T03:19:11;101018.44;;;13.70
78859;BMP280;68210;52.032;4.634;2023-11-21T03:21:13;101007.31;;;13.82
78859;BMP280;68210;52.032;4.634;2023-11-21T03:23:13;101004.16;;;13.80
78859;BMP280;68210;52.032;4.634;2023-11-21T03:25:14;100994.47;;;13.82
78859;BMP280;68210;52.032;4.634;2023-11-21T03:27:14;101005.44;;;13.86
78859;BMP280;68210;52.032;4.634;2023-11-21T03:29:15;101005.53;;;13.93
78859;BMP280;68210;52.032;4.634;2023-11-21T03:31:15;101000.97;;;13.97
78859;BMP280;68210;52.032;4.634;2023-11-21T03:33:17;100993.06;;;13.92
78859;BMP280;68210;52.032;4.634;2023-11-21T03:35:17;101009.56;;;13.98
78859;BMP280;68210;52.032;4.634;2023-11-21T03:37:21;101001.69;;;13.94
78859;BMP280;68210;52.032;4.634;2023-11-21T03:39:21;101016.09;;;13.94
78859;BMP280;68210;52.032;4.634;2023-11-21T03:41:22;101013.47;;;14.01
78859;BMP280;68210;52.032;4.634;2023-11-21T03:43:23;101016.00;;;14.13
78859;BMP280;68210;52.032;4.634;2023-11-21T03:45:24;101008.19;;;14.11
78859;BMP280;68210;52.032;4.634;2023-11-21T03:47:27;101019.63;;;14.20
78859;BMP280;68210;52.032;4.634;2023-11-21T03:49:28;101024.94;;;14.10
78859;BMP280;68210;52.032;4.634;2023-11-21T03:51:29;101036.81;;;13.98
78859;BMP280;68210;52.032;4.634;2023-11-21T03:53:29;101033.22;;;13.95
78859;BMP280;68210;52.032;4.634;2023-11-21T03:55:30;101040.09;;;13.00
78859;BMP280;68210;52.032;4.634;2023-11-21T03:57:32;101043.34;;;12.53
78859;BMP280;68210;52.032;4.634;2023-11-21T03:59:33;101050.13;;;12.10
78859;BMP280;68210;52.032;4.634;2023-11-21T04:01:33;101054.66;;;11.87
78859;BMP280;68210;52.032;4.634;2023-11-21T04:03:34;101061.13;;;11.67
78859;BMP280;68210;52.032;4.634;2023-11-21T04:05:34;101059.09;;;11.64
78859;BMP280;68210;52.032;4.634;2023-11-21T04:07:35;101062.97;;;11.63
78859;BMP280;68210;52.032;4.634;2023-11-21T04:09:35;101053.13;;;11.44
78859;BMP280;68210;52.032;4.634;2023-11-21T04:11:36;101059.75;;;11.31
78859;BMP280;68210;52.032;4.634;2023-11-21T04:13:37;101064.22;;;11.23
78859;BMP280;68210;52.032;4.634;2023-11-21T04:15:37;101070.91;;;11.14
78859;BMP280;68210;52.032;4.634;2023-11-21T04:17:37;101078.34;;;11.02
78859;BMP280;68210;52.032;4.634;2023-11-21T04:19:38;101076.31;;;10.99
78859;BMP280;68210;52.032;4.634;2023-11-21T04:21:38;101082.84;;;10.98
78859;BMP280;68210;52.032;4.634;2023-11-21T04:23:38;101080.38;;;10.93
78859;BMP280;68210;52.032;4.634;2023-11-21T04:25:40;101093.22;;;10.81
78859;BMP280;68210;52.032;4.634;2023-11-21T04:27:41;101091.63;;;10.80
78859;BMP280;68210;52.032;4.634;2023-11-21T04:29:43;101107.88;;;10.80
78859;BMP280;68210;52.032;4.634;2023-11-21T04:31:44;101107.78;;;10.76
78859;BMP280;68210;52.032;4.634;2023-11-21T04:33:44;101103.97;;;10.77
78859;BMP280;68210;52.032;4.634;2023-11-21T04:35:45;101105.06;;;10.76
78859;BMP280;68210;52.032;4.634;2023-11-21T04:37:46;101114.25;;;10.72
78859;BMP280;68210;52.032;4.634;2023-11-21T04:39:46;101106.78;;;10.69
78859;BMP280;68210;52.032;4.634;2023-11-21T04:41:47;101108.16;;;10.63
78859;BMP280;68210;52.032;4.634;2023-11-21T04:43:47;101097.53;;;10.70
78859;BMP280;68210;52.032;4.634;2023-11-21T04:45:47;101107.69;;;10.73
78859;BMP280;68210;52.032;4.634;2023-11-21T04:47:48;101110.78;;;10.60
78859;BMP280;68210;52.032;4.634;2023-11-21T04:49:48;101110.91;;;10.51
78859;BMP280;68210;52.032;4.634;2023-11-21T04:51:48;101114.03;;;10.65
78859;BMP280;68210;52.032;4.634;2023-11-21T04:53:49;101116.97;;;10.72
78859;BMP280;68210;52.032;4.634;2023-11-21T04:55:49;101126.31;;;10.74
78859;BMP280;68210;52.032;4.634;2023-11-21T04:57:49;101132.78;;;10.70
78859;BMP280;68210;52.032;4.634;2023-11-21T04:59:50;101136.19;;;10.67
78859;BMP280;68210;52.032;4.634;2023-11-21T05:01:50;101131.09;;;10.77
78859;BMP280;68210;52.032;4.634;2023-11-21T05:03:51;101132.97;;;10.77
78859;BMP280;68210;52.032;4.634;2023-11-21T05:05:52;101134.34;;;10.83
78859;BMP280;68210;52.032;4.634;2023-11-21T05:07:53;101151.50;;;10.87
78859;BMP280;68210;52.032;4.634;2023-11-21T05:09:53;101134.34;;;10.83
78859;BMP280;68210;52.032;4.634;2023-11-21T05:11:54;101140.00;;;10.78
78859;BMP280;68210;52.032;4.634;2023-11-21T05:13:54;101140.34;;;10.76
78859;BMP280;68210;52.032;4.634;2023-11-21T05:15:59;101134.91;;;10.76
78859;BMP280;68210;52.032;4.634;2023-11-21T05:17:59;101140.13;;;10.69
78859;BMP280;68210;52.032;4.634;2023-11-21T05:20:00;101142.72;;;10.78
78859;BMP280;68210;52.032;4.634;2023-11-21T05:22:03;101148.25;;;10.81
78859;BMP280;68210;52.032;4.634;2023-11-21T05:24:04;101156.47;;;10.85
78859;BMP280;68210;52.032;4.634;2023-11-21T05:26:05;101155.13;;;10.91
78859;BMP280;68210;52.032;4.634;2023-11-21T05:28:05;101164.25;;;10.98
78859;BMP280;68210;52.032;4.634;2023-11-21T05:30:07;101150.34;;;10.99
78859;BMP280;68210;52.032;4.634;2023-11-21T05:32:12;101169.56;;;10.94
78859;BMP280;68210;52.032;4.634;2023-11-21T05:34:12;101165.38;;;10.97
78859;BMP280;68210;52.032;4.634;2023-11-21T05:36:12;101171.13;;;10.95
78859;BMP280;68210;52.032;4.634;2023-11-21T05:38:13;101166.63;;;10.88
78859;BMP280;68210;52.032;4.634;2023-11-21T05:40:14;101177.06;;;10.86
78859;BMP280;68210;52.032;4.634;2023-11-21T05:42:15;101167.69;;;10.83
78859;BMP280;68210;52.032;4.634;2023-11-21T05:44:15;101177.94;;;10.90
78859;BMP280;68210;52.032;4.634;2023-11-21T05:46:15;101182.44;;;10.97
78859;BMP280;68210;52.032;4.634;2023-11-21T05:48:16;101179.72;;;10.97
78859;BMP280;68210;52.032;4.634;2023-11-21T05:50:17;101180.09;;;10.84
78859;BMP280;68210;52.032;4.634;2023-11-21T05:52:18;101189.38;;;10.83
78859;BMP280;68210;52.032;4.634;2023-11-21T05:54:18;101192.59;;;11.00
78859;BMP280;68210;52.032;4.634;2023-11-21T05:56:19;101195.81;;;10.91
78859;BMP280;68210;52.032;4.634;2023-11-21T05:58:20;101200.66;;;10.97
78859;BMP280;68210;52.032;4.634;2023-11-21T06:00:20;101205.16;;;10.93
78859;BMP280;68210;52.032;4.634;2023-11-21T06:02:22;101204.59;;;10.99
78859;BMP280;68210;52.032;4.634;2023-11-21T06:04:22;101209.59;;;10.74
78859;BMP280;68210;52.032;4.634;2023-11-21T06:06:24;101216.63;;;10.63
78859;BMP280;68210;52.032;4.634;2023-11-21T06:08:25;101221.81;;;10.56
78859;BMP280;68210;52.032;4.634;2023-11-21T06:10:27;101224.31;;;10.61
78859;BMP280;68210;52.032;4.634;2023-11-21T06:12:28;101217.53;;;10.43
78859;BMP280;68210;52.032;4.634;2023-11-21T06:14:29;101222.16;;;10.55
78859;BMP280;68210;52.032;4.634;2023-11-21T06:16:29;101224.53;;;10.68
78859;BMP280;68210;52.032;4.634;2023-11-21T06:18:29;101234.00;;;10.74
78859;BMP280;68210;52.032;4.634;2023-11-21T06:20:30;101228.38;;;10.67
78859;BMP280;68210;52.032;4.634;2023-11-21T06:22:31;101226.56;;;10.83
78859;BMP280;68210;52.032;4.634;2023-11-21T06:24:32;101233.34;;;10.89
78859;BMP280;68210;52.032;4.634;2023-11-21T06:26:32;101238.75;;;10.89
78859;BMP280;68210;52.032;4.634;2023-11-21T06:28:33;101224.97;;;10.82
78859;BMP280;68210;52.032;4.634;2023-11-21T06:30:33;101233.31;;;10.77
78859;BMP280;68210;52.032;4.634;2023-11-21T06:32:34;101230.19;;;10.75
78859;BMP280;68210;52.032;4.634;2023-11-21T06:34:36;101231.97;;;10.71
78859;BMP280;68210;52.032;4.634;2023-11-21T06:36:36;101242.16;;;10.74
78859;BMP280;68210;52.032;4.634;2023-11-21T06:38:37;101245.00;;;10.77
78859;BMP280;68210;52.032;4.634;2023-11-21T06:40:37;101255.94;;;10.81
78859;BMP280;68210;52.032;4.634;2023-11-21T06:42:38;101257.75;;;10.89
78859;BMP280;68210;52.032;4.634;2023-11-21T06:44:38;101246.56;;;10.78
78859;BMP280;68210;52.032;4.634;2023-11-21T06:46:39;101250.28;;;10.74
78859;BMP280;68210;52.032;4.634;2023-11-21T06:48:42;101260.91;;;10.67
78859;BMP280;68210;52.032;4.634;2023-11-21T06:50:43;101256.16;;;10.52
78859;BMP280;68210;52.032;4.634;2023-11-21T06:52:43;101274.22;;;10.48
78859;BMP280;68210;52.032;4.634;2023-11-21T06:54:45;101277.72;;;10.49
78859;BMP280;68210;52.032;4.634;2023-11-21T06:56:46;101277.59;;;10.33
78859;BMP280;68210;52.032;4.634;2023-11-21T06:58:47;101280.75;;;10.35
78859;BMP280;68210;52.032;4.634;2023-11-21T07:00:47;101284.16;;;10.32
78859;BMP280;68210;52.032;4.634;2023-11-21T07:02:50;101290.16;;;10.38
78859;BMP280;68210;52.032;4.634;2023-11-21T07:04:50;101289.09;;;10.31
78859;BMP280;68210;52.032;4.634;2023-11-21T07:06:52;101289.31;;;10.26
78859;BMP280;68210;52.032;4.634;2023-11-21T07:08:53;101291.59;;;10.24
78859;BMP280;68210;52.032;4.634;2023-11-21T07:10:53;101288.22;;;10.27
78859;BMP280;68210;52.032;4.634;2023-11-21T07:12:54;101294.53;;;10.31
78859;BMP280;68210;52.032;4.634;2023-11-21T07:14:54;101299.63;;;10.32
78859;BMP280;68210;52.032;4.634;2023-11-21T07:16:55;101306.41;;;10.38
78859;BMP280;68210;52.032;4.634;2023-11-21T07:18:55;101308.91;;;10.43
78859;BMP280;68210;52.032;4.634;2023-11-21T07:20:55;101304.50;;;10.50
78859;BMP280;68210;52.032;4.634;2023-11-21T07:22:56;101306.75;;;10.48
78859;BMP280;68210;52.032;4.634;2023-11-21T07:24:58;101314.69;;;10.53
78859;BMP280;68210;52.032;4.634;2023-11-21T07:26:58;101314.00;;;10.56
78859;BMP280;68210;52.032;4.634;2023-11-21T07:28:59;101322.94;;;10.57
78859;BMP280;68210;52.032;4.634;2023-11-21T07:30:59;101329.59;;;10.59
78859;BMP280;68210;52.032;4.634;2023-11-21T07:33:00;101337.53;;;10.64
78859;BMP280;68210;52.032;4.634;2023-11-21T07:35:00;101342.28;;;10.67
78859;BMP280;68210;52.032;4.634;2023-11-21T07:37:01;101340.81;;;10.69
78859;BMP280;68210;52.032;4.634;2023-11-21T07:39:02;101340.59;;;10.86
78859;BMP280;68210;52.032;4.634;2023-11-21T07:41:03;101350.88;;;10.92
78859;BMP280;68210;52.032;4.634;2023-11-21T07:43:03;101351.09;;;10.88
78859;BMP280;68210;52.032;4.634;2023-11-21T07:45:06;101334.81;;;10.76
78859;BMP280;68210;52.032;4.634;2023-11-21T07:47:07;101350.97;;;10.84
78859;BMP280;68210;52.032;4.634;2023-11-21T07:49:07;101356.97;;;10.90
78859;BMP280;68210;52.032;4.634;2023-11-21T07:51:08;101364.00;;;10.91
78859;BMP280;68210;52.032;4.634;2023-11-21T07:53:08;101348.84;;;10.90
78859;BMP280;68210;52.032;4.634;2023-11-21T07:55:09;101365.31;;;10.85
78859;BMP280;68210;52.032;4.634;2023-11-21T07:57:10;101361.47;;;10.74
78859;BMP280;68210;52.032;4.634;2023-11-21T07:59:13;101362.25;;;10.74
78859;BMP280;68210;52.032;4.634;2023-11-21T08:01:14;101369.06;;;10.80
78859;BMP280;68210;52.032;4.634;2023-11-21T08:03:14;101374.16;;;10.93
78859;BMP280;68210;52.032;4.634;2023-11-21T08:05:15;101373.03;;;10.94
78859;BMP280;68210;52.032;4.634;2023-11-21T08:07:17;101380.69;;;10.92
78859;BMP280;68210;52.032;4.634;2023-11-21T08:09:17;101379.59;;;10.93
78859;BMP280;68210;52.032;4.634;2023-11-21T08:11:17;101384.44;;;11.00
78859;BMP280;68210;52.032;4.634;2023-11-21T08:13:18;101385.13;;;10.97
78859;BMP280;68210;52.032;4.634;2023-11-21T08:15:18;101388.97;;;11.08
78859;BMP280;68210;52.032;4.634;2023-11-21T08:17:19;101392.47;;;11.08
78859;BMP280;68210;52.032;4.634;2023-11-21T08:19:20;101397.00;;;11.04
78859;BMP280;68210;52.032;4.634;2023-11-21T08:21:21;101401.50;;;11.00
78859;BMP280;68210;52.032;4.634;2023-11-21T08:23:22;101403.44;;;11.00
78859;BMP280;68210;52.032;4.634;2023-11-21T08:25:28;101411.47;;;10.96
78859;BMP280;68210;52.032;4.634;2023-11-21T08:27:30;101401.41;;;10.97
78859;BMP280;68210;52.032;4.634;2023-11-21T08:29:30;101397.75;;;10.93
78859;BMP280;68210;52.032;4.634;2023-11-21T08:31:31;101409.88;;;10.95
78859;BMP280;68210;52.032;4.634;2023-11-21T08:33:32;101404.34;;;10.92
78859;BMP280;68210;52.032;4.634;2023-11-21T08:35:32;101407.50;;;10.94
78859;BMP280;68210;52.032;4.634;2023-11-21T08:37:33;101408.28;;;10.94
78859;BMP280;68210;52.032;4.634;2023-11-21T08:39:37;101408.63;;;10.93
78859;BMP280;68210;52.032;4.634;2023-11-21T08:41:37;101409.19;;;10.98
78859;BMP280;68210;52.032;4.634;2023-11-21T08:43:38;101417.91;;;11.04
78859;BMP280;68210;52.032;4.634;2023-11-21T08:45:42;101418.03;;;11.07
78859;BMP280;68210;52.032;4.634;2023-11-21T08:47:42;101414.88;;;11.05
78859;BMP280;68210;52.032;4.634;2023-11-21T08:49:44;101419.25;;;10.98
78859;BMP280;68210;52.032;4.634;2023-11-21T08:51:45;101428.63;;;11.00
78859;BMP280;68210;52.032;4.634;2023-11-21T08:53:46;101417.13;;;11.03
78859;BMP280;68210;52.032;4.634;2023-11-21T08:55:46;101425.41;;;11.07
78859;BMP280;68210;52.032;4.634;2023-11-21T08:57:46;101417.13;;;11.03
78859;BMP280;68210;52.032;4.634;2023-11-21T08:59:47;101421.44;;;11.04
78859;BMP280;68210;52.032;4.634;2023-11-21T09:01:47;101415.53;;;11.02
78859;BMP280;68210;52.032;4.634;2023-11-21T09:03:47;101439.75;;;11.07
78859;BMP280;68210;52.032;4.634;2023-11-21T09:05:50;101429.69;;;11.08
78859;BMP280;68210;52.032;4.634;2023-11-21T09:07:51;101442.09;;;11.09
78859;BMP280;68210;52.032;4.634;2023-11-21T09:09:51;101438.81;;;11.03
78859;BMP280;68210;52.032;4.634;2023-11-21T09:11:52;101448.34;;;11.09
78859;BMP280;68210;52.032;4.634;2023-11-21T09:13:52;101450.91;;;11.06
78859;BMP280;68210;52.032;4.634;2023-11-21T09:15:52;101458.63;;;11.16
78859;BMP280;68210;52.032;4.634;2023-11-21T09:17:53;101460.78;;;11.10
78859;BMP280;68210;52.032;4.634;2023-11-21T09:19:53;101468.47;;;11.08
78859;BMP280;68210;52.032;4.634;2023-11-21T09:21:55;101475.47;;;11.09
78859;BMP280;68210;52.032;4.634;2023-11-21T09:23:57;101479.31;;;11.08
78859;BMP280;68210;52.032;4.634;2023-11-21T09:25:58;101482.50;;;11.10
78859;BMP280;68210;52.032;4.634;2023-11-21T09:28:00;101491.53;;;11.14
78859;BMP280;68210;52.032;4.634;2023-11-21T09:30:02;101486.34;;;11.09
78859;BMP280;68210;52.032;4.634;2023-11-21T09:32:02;101481.69;;;11.10
78859;BMP280;68210;52.032;4.634;2023-11-21T09:34:03;101491.09;;;11.12
78859;BMP280;68210;52.032;4.634;2023-11-21T09:36:04;101494.03;;;11.07
78859;BMP280;68210;52.032;4.634;2023-11-21T09:38:05;101502.63;;;11.09
78859;BMP280;68210;52.032;4.634;2023-11-21T09:40:11;101506.44;;;11.08
78859;BMP280;68210;52.032;4.634;2023-11-21T09:42:25;101509.72;;;11.14
78859;BMP280;68210;52.032;4.634;2023-11-21T09:44:39;101515.94;;;11.14
78859;BMP280;68210;52.032;4.634;2023-11-21T09:46:42;101515.84;;;11.11
78859;BMP280;68210;52.032;4.634;2023-11-21T09:48:43;101523.78;;;11.16
78859;BMP280;68210;52.032;4.634;2023-11-21T09:50:46;101525.91;;;11.10
78859;BMP280;68210;52.032;4.634;2023-11-21T09:53:20;101537.09;;;11.09
78859;BMP280;68210;52.032;4.634;2023-11-21T09:55:27;101540.63;;;11.09
78859;BMP280;68210;52.032;4.634;2023-11-21T09:57:35;101560.25;;;11.06
78859;BMP280;68210;52.032;4.634;2023-11-21T09:59:36;101550.53;;;11.05
78859;BMP280;68210;52.032;4.634;2023-11-21T10:01:38;101555.06;;;11.01
78859;BMP280;68210;52.032;4.634;2023-11-21T10:03:40;101546.91;;;11.01
78859;BMP280;68210;52.032;4.634;2023-11-21T10:05:43;101557.53;;;11.06
78859;BMP280;68210;52.032;4.634;2023-11-21T10:07:44;101555.97;;;11.05
78859;BMP280;68210;52.032;4.634;2023-11-21T10:09:45;101561.50;;;11.09
78859;BMP280;68210;52.032;4.634;2023-11-21T10:11:47;101571.47;;;11.05
78859;BMP280;68210;52.032;4.634;2023-11-21T10:13:47;101569.84;;;11.04
78859;BMP280;68210;52.032;4.634;2023-11-21T10:15:50;101585.13;;;11.08
78859;BMP280;68210;52.032;4.634;2023-11-21T10:17:52;101586.38;;;10.99
78859;BMP280;68210;52.032;4.634;2023-11-21T10:19:53;101587.47;;;10.98
78859;BMP280;68210;52.032;4.634;2023-11-21T10:21:56;101591.44;;;11.00
78859;BMP280;68210;52.032;4.634;2023-11-21T10:24:00;101601.19;;;11.01
78859;BMP280;68210;52.032;4.634;2023-11-21T10:26:01;101599.00;;;10.95
78859;BMP280;68210;52.032;4.634;2023-11-21T10:28:02;101611.56;;;10.99
78859;BMP280;68210;52.032;4.634;2023-11-21T10:30:10;101600.91;;;10.94
78859;BMP280;68210;52.032;4.634;2023-11-21T10:32:12;101606.81;;;10.96
78859;BMP280;68210;52.032;4.634;2023-11-21T10:34:19;101612.25;;;10.96
78859;BMP280;68210;52.032;4.634;2023-11-21T10:36:25;101616.41;;;10.94
78859;BMP280;68210;52.032;4.634;2023-11-21T10:38:26;101620.03;;;10.98
78859;BMP280;68210;52.032;4.634;2023-11-21T10:40:28;101618.09;;;10.98
78859;BMP280;68210;52.032;4.634;2023-11-21T10:42:29;101625.25;;;11.03
78859;BMP280;68210;52.032;4.634;2023-11-21T10:44:29;101629.44;;;11.00
78859;BMP280;68210;52.032;4.634;2023-11-21T10:46:30;101633.09;;;11.04
78859;BMP280;68210;52.032;4.634;2023-11-21T10:48:31;101622.06;;;11.01
78859;BMP280;68210;52.032;4.634;2023-11-21T10:50:33;101639.03;;;10.98
78859;BMP280;68210;52.032;4.634;2023-11-21T10:52:34;101636.66;;;10.96
78859;BMP280;68210;52.032;4.634;2023-11-21T10:54:37;101645.72;;;11.00
78859;BMP280;68210;52.032;4.634;2023-11-21T10:56:39;101644.59;;;11.01
78859;BMP280;68210;52.032;4.634;2023-11-21T10:58:41;101642.53;;;10.98
78859;BMP280;68210;52.032;4.634;2023-11-21T11:00:41;101650.66;;;10.98
78859;BMP280;68210;52.032;4.634;2023-11-21T11:02:43;101656.69;;;11.04
78859;BMP280;68210;52.032;4.634;2023-11-21T11:04:44;101646.78;;;11.08
78859;BMP280;68210;52.032;4.634;2023-11-21T11:06:50;101641.59;;;11.15
78859;BMP280;68210;52.032;4.634;2023-11-21T11:08:51;101649.75;;;11.15
78859;BMP280;68210;52.032;4.634;2023-11-21T11:10:52;101652.47;;;11.15
78859;BMP280;68210;52.032;4.634;2023-11-21T11:12:56;101651.44;;;11.19
78859;BMP280;68210;52.032;4.634;2023-11-21T11:14:58;101651.91;;;11.21
78859;BMP280;68210;52.032;4.634;2023-11-21T11:16:59;101658.47;;;11.20
78859;BMP280;68210;52.032;4.634;2023-11-21T11:19:01;101656.22;;;11.22
78859;BMP280;68210;52.032;4.634;2023-11-21T11:28:06;101648.50;;;11.12
78859;BMP280;68210;52.032;4.634;2023-11-21T11:30:21;101657.06;;;11.14
78859;BMP280;68210;52.032;4.634;2023-11-21T11:34:55;101654.38;;;11.14
78859;BMP280;68210;52.032;4.634;2023-11-21T11:37:02;101651.53;;;11.11
78859;BMP280;68210;52.032;4.634;2023-11-21T11:39:04;101638.50;;;11.04